sensor_id;sensor_type;location;lat;lon;timestamp;P1;durP1;ratioP1;P2;durP2;ratioP2
9938;SDS011;5008;50.656;7.188;2024-01-30T05:01:39;10.47;;;8.37;;
9938;SDS011;5008;50.656;7.188;2024-01-30T05:04:07;9.47;;;8.40;;
9938;SDS011;5008;50.656;7.188;2024-01-30T05:06:34;10.30;;;8.10;;
9938;SDS011;5008;50.656;7.188;2024-01-30T05:09:00;9.33;;;8.20;;
9938;SDS011;5008;50.656;7.188;2024-01-30T05:11:29;9.07;;;7.87;;
9938;SDS011;5008;50.656;7.188;2024-01-30T05:13:55;9.53;;;8.53;;
9938;SDS011;5008;50.656;7.188;2024-01-30T05:16:22;8.50;;;7.63;;
9938;SDS011;5008;50.656;7.188;2024-01-30T05:18:50;9.07;;;7.87;;
9938;SDS011;5008;50.656;7.188;2024-01-30T05:21:17;11.07;;;8.50;;
9938;SDS011;5008;50.656;7.188;2024-01-30T05:23:44;11.10;;;7.90;;
9938;SDS011;5008;50.656;7.188;2024-01-30T05:26:10;9.80;;;7.73;;
9938;SDS011;5008;50.656;7.188;2024-01-30T05:28:37;10.57;;;7.47;;
9938;SDS011;5008;50.656;7.188;2024-01-30T05:31:04;13.83;;;8.30;;
9938;SDS011;5008;50.656;7.188;2024-01-30T05:33:31;8.83;;;7.50;;
9938;SDS011;5008;50.656;7.188;2024-01-30T05:35:59;9.70;;;8.13;;
9938;SDS011;5008;50.656;7.188;2024-01-30T05:38:27;13.17;;;8.43;;
9938;SDS011;5008;50.656;7.188;2024-01-30T05:40:54;10.43;;;8.50;;
9938;SDS011;5008;50.656;7.188;2024-01-30T05:43:21;9.30;;;7.97;;
9938;SDS011;5008;50.656;7.188;2024-01-30T05:45:48;13.43;;;11.67;;
9938;SDS011;5008;50.656;7.188;2024-01-30T05:48:15;14.27;;;12.77;;
9938;SDS011;5008;50.656;7.188;2024-01-30T05:50:42;9.93;;;8.93;;
9938;SDS011;5008;50.656;7.188;2024-01-30T05:53:10;9.67;;;8.10;;
9938;SDS011;5008;50.656;7.188;2024-01-30T05:55:37;9.83;;;8.80;;
9938;SDS011;5008;50.656;7.188;2024-01-30T05:58:03;9.43;;;8.23;;
9938;SDS011;5008;50.656;7.188;2024-01-30T06:00:30;11.27;;;8.67;;
9938;SDS011;5008;50.656;7.188;2024-01-30T06:02:57;9.70;;;8.10;;
9938;SDS011;5008;50.656;7.188;2024-01-30T06:05:24;12.77;;;8.33;;
9938;SDS011;5008;50.656;7.188;2024-01-30T06:07:51;10.87;;;9.13;;
9938;SDS011;5008;50.656;7.188;2024-01-30T06:10:19;10.07;;;8.50;;
9938;SDS011;5008;50.656;7.188;2024-01-30T06:12:45;12.50;;;8.53;;
9938;SDS011;5008;50.656;7.188;2024-01-30T06:15:13;10.97;;;8.30;;
9938;SDS011;5008;50.656;7.188;2024-01-30T06:17:40;9.83;;;8.27;;
9938;SDS011;5008;50.656;7.188;2024-01-30T06:20:07;9.93;;;7.53;;
9938;SDS011;5008;50.656;7.188;2024-01-30T06:22:33;10.37;;;8.53;;
9938;SDS011;5008;50.656;7.188;2024-01-30T06:25:00;10.40;;;9.30;;
9938;SDS011;5008;50.656;7.188;2024-01-30T06:27:29;12.37;;;9.07;;
9938;SDS011;5008;50.656;7.188;2024-01-30T06:29:55;10.70;;;8.47;;
9938;SDS011;5008;50.656;7.188;2024-01-30T06:32:22;10.27;;;8.77;;
9938;SDS011;5008;50.656;7.188;2024-01-30T06:34:49;9.13;;;8.00;;
9938;SDS011;5008;50.656;7.188;2024-01-30T06:37:16;9.43;;;8.40;;
9938;SDS011;5008;50.656;7.188;2024-01-30T06:39:43;12.13;;;9.50;;
9938;SDS011;5008;50.656;7.188;2024-01-30T06:42:10;10.20;;;7.93;;
9938;SDS011;5008;50.656;7.188;2024-01-30T06:44:38;8.93;;;8.03;;
9938;SDS011;5008;50.656;7.188;2024-01-30T06:47:05;10.67;;;8.20;;
9938;SDS011;5008;50.656;7.188;2024-01-30T06:49:32;9.83;;;8.43;;
9938;SDS011;5008;50.656;7.188;2024-01-30T06:51:59;10.33;;;9.03;;
9938;SDS011;5008;50.656;7.188;2024-01-30T06:54:26;11.50;;;7.77;;
9938;SDS011;5008;50.656;7.188;2024-01-30T06:56:53;10.83;;;7.90;;
9938;SDS011;5008;50.656;7.188;2024-01-30T06:59:20;8.97;;;7.67;;
9938;SDS011;5008;50.656;7.188;2024-01-30T07:01:48;10.30;;;8.07;;
9938;SDS011;5008;50.656;7.188;2024-01-30T07:04:14;13.37;;;8.60;;
9938;SDS011;5008;50.656;7.188;2024-01-30T07:06:41;11.30;;;8.27;;
9938;SDS011;5008;50.656;7.188;2024-01-30T07:09:08;8.93;;;8.03;;
9938;SDS011;5008;50.656;7.188;2024-01-30T07:11:35;9.80;;;8.53;;
9938;SDS011;5008;50.656;7.188;2024-01-30T07:14:02;13.60;;;8.60;;
9938;SDS011;5008;50.656;7.188;2024-01-30T07:16:29;12.10;;;9.03;;
9938;SDS011;5008;50.656;7.188;2024-01-30T07:18:58;11.73;;;8.37;;
9938;SDS011;5008;50.656;7.188;2024-01-30T07:21:24;13.77;;;9.27;;
9938;SDS011;5008;50.656;7.188;2024-01-30T07:23:53;10.27;;;9.17;;
9938;SDS011;5008;50.656;7.188;2024-01-30T07:26:20;11.27;;;9.73;;
9938;SDS011;5008;50.656;7.188;2024-01-30T07:28:47;9.83;;;8.83;;
9938;SDS011;5008;50.656;7.188;2024-01-30T07:31:15;10.90;;;9.33;;
9938;SDS011;5008;50.656;7.188;2024-01-30T07:33:41;11.33;;;8.70;;
9938;SDS011;5008;50.656;7.188;2024-01-30T07:36:09;11.47;;;9.73;;
9938;SDS011;5008;50.656;7.188;2024-01-30T07:38:36;12.70;;;9.77;;
9938;SDS011;5008;50.656;7.188;2024-01-30T07:41:03;10.90;;;9.17;;
9938;SDS011;5008;50.656;7.188;2024-01-30T07:43:30;9.87;;;8.70;;
9938;SDS011;5008;50.656;7.188;2024-01-30T07:45:58;10.83;;;8.77;;
9938;SDS011;5008;50.656;7.188;2024-01-30T07:48:26;9.97;;;8.80;;
9938;SDS011;5008;50.656;7.188;2024-01-30T07:50:52;12.23;;;8.80;;
9938;SDS011;5008;50.656;7.188;2024-01-30T07:53:20;12.87;;;9.23;;
9938;SDS011;5008;50.656;7.188;2024-01-30T07:55:47;10.30;;;8.83;;
9938;SDS011;5008;50.656;7.188;2024-01-30T07:58:14;11.67;;;9.03;;
9938;SDS011;5008;50.656;7.188;2024-01-30T08:00:41;10.47;;;8.53;;
9938;SDS011;5008;50.656;7.188;2024-01-30T08:03:08;11.53;;;9.03;;
9938;SDS011;5008;50.656;7.188;2024-01-30T08:05:35;10.53;;;8.37;;
9938;SDS011;5008;50.656;7.188;2024-01-30T08:08:03;10.63;;;9.07;;
9938;SDS011;5008;50.656;7.188;2024-01-30T08:10:31;13.73;;;9.10;;
9938;SDS011;5008;50.656;7.188;2024-01-30T08:12:58;9.67;;;8.67;;
9938;SDS011;5008;50.656;7.188;2024-01-30T08:15:25;11.07;;;9.20;;
9938;SDS011;5008;50.656;7.188;2024-01-30T08:18:03;9.73;;;8.73;;
9938;SDS011;5008;50.656;7.188;2024-01-30T08:20:31;12.17;;;9.17;;
9938;SDS011;5008;50.656;7.188;2024-01-30T08:22:58;10.43;;;8.67;;
9938;SDS011;5008;50.656;7.188;2024-01-30T08:25:26;12.27;;;9.80;;
9938;SDS011;5008;50.656;7.188;2024-01-30T08:27:54;10.20;;;9.00;;
9938;SDS011;5008;50.656;7.188;2024-01-30T08:30:22;11.93;;;9.10;;
9938;SDS011;5008;50.656;7.188;2024-01-30T08:32:48;12.50;;;9.83;;
9938;SDS011;5008;50.656;7.188;2024-01-30T08:35:15;10.67;;;9.17;;
9938;SDS011;5008;50.656;7.188;2024-01-30T08:37:42;13.93;;;9.73;;
9938;SDS011;5008;50.656;7.188;2024-01-30T08:40:09;13.77;;;9.80;;
9938;SDS011;5008;50.656;7.188;2024-01-30T08:42:36;11.90;;;9.87;;
9938;SDS011;5008;50.656;7.188;2024-01-30T08:45:05;11.17;;;10.07;;
9938;SDS011;5008;50.656;7.188;2024-01-30T08:47:33;10.57;;;9.50;;
9938;SDS011;5008;50.656;7.188;2024-01-30T08:50:00;11.70;;;9.53;;
9938;SDS011;5008;50.656;7.188;2024-01-30T08:52:27;12.23;;;9.23;;
9938;SDS011;5008;50.656;7.188;2024-01-30T08:54:53;11.70;;;9.40;;
9938;SDS011;5008;50.656;7.188;2024-01-30T08:57:20;11.13;;;9.40;;
9938;SDS011;5008;50.656;7.188;2024-01-30T08:59:47;10.67;;;9.30;;
9938;SDS011;5008;50.656;7.188;2024-01-30T09:02:15;11.90;;;9.67;;
9938;SDS011;5008;50.656;7.188;2024-01-30T09:04:43;10.47;;;9.27;;
9938;SDS011;5008;50.656;7.188;2024-01-30T09:07:09;10.33;;;8.97;;
9938;SDS011;5008;50.656;7.188;2024-01-30T09:09:38;11.40;;;9.93;;
9938;SDS011;5008;50.656;7.188;2024-01-30T09:12:06;10.90;;;9.17;;
9938;SDS011;5008;50.656;7.188;2024-01-30T09:14:34;10.17;;;9.10;;
9938;SDS011;5008;50.656;7.188;2024-01-30T09:17:01;11.13;;;9.00;;
9938;SDS011;5008;50.656;7.188;2024-01-30T09:19:29;10.77;;;8.87;;
9938;SDS011;5008;50.656;7.188;2024-01-30T09:21:56;10.63;;;8.80;;
9938;SDS011;5008;50.656;7.188;2024-01-30T09:24:23;11.73;;;9.70;;
9938;SDS011;5008;50.656;7.188;2024-01-30T09:26:50;12.03;;;10.77;;
9938;SDS011;5008;50.656;7.188;2024-01-30T09:29:16;12.73;;;10.20;;
9938;SDS011;5008;50.656;7.188;2024-01-30T09:31:43;12.57;;;9.37;;
9938;SDS011;5008;50.656;7.188;2024-01-30T09:34:10;11.27;;;10.03;;
9938;SDS011;5008;50.656;7.188;2024-01-30T09:36:38;9.70;;;8.67;;
9938;SDS011;5008;50.656;7.188;2024-01-30T09:39:05;11.27;;;9.40;;
9938;SDS011;5008;50.656;7.188;2024-01-30T09:41:32;13.33;;;9.50;;
9938;SDS011;5008;50.656;7.188;2024-01-30T09:44:05;12.50;;;10.00;;
9938;SDS011;5008;50.656;7.188;2024-01-30T09:46:34;10.80;;;9.23;;
9938;SDS011;5008;50.656;7.188;2024-01-30T09:49:02;9.70;;;8.70;;
9938;SDS011;5008;50.656;7.188;2024-01-30T09:51:29;11.57;;;8.87;;
9938;SDS011;5008;50.656;7.188;2024-01-30T09:53:58;10.73;;;8.60;;
9938;SDS011;5008;50.656;7.188;2024-01-30T09:56:25;12.27;;;9.13;;
9938;SDS011;5008;50.656;7.188;2024-01-30T09:58:51;9.50;;;7.90;;
9938;SDS011;5008;50.656;7.188;2024-01-30T10:01:18;10.00;;;8.00;;
9938;SDS011;5008;50.656;7.188;2024-01-30T10:03:46;8.27;;;7.27;;
9938;SDS011;5008;50.656;7.188;2024-01-30T10:06:13;9.07;;;7.40;;
9938;SDS011;5008;50.656;7.188;2024-01-30T10:08:42;10.60;;;7.07;;
9938;SDS011;5008;50.656;7.188;2024-01-30T10:11:09;7.80;;;7.00;;
9938;SDS011;5008;50.656;7.188;2024-01-30T10:13:36;8.47;;;7.33;;
9938;SDS011;5008;50.656;7.188;2024-01-30T10:16:05;9.27;;;7.20;;
9938;SDS011;5008;50.656;7.188;2024-01-30T10:18:32;7.90;;;6.93;;
9938;SDS011;5008;50.656;7.188;2024-01-30T10:20:59;8.27;;;7.47;;
9938;SDS011;5008;50.656;7.188;2024-01-30T10:23:26;9.73;;;7.93;;
9938;SDS011;5008;50.656;7.188;2024-01-30T10:25:53;10.33;;;8.10;;
9938;SDS011;5008;50.656;7.188;2024-01-30T10:28:21;9.57;;;7.87;;
9938;SDS011;5008;50.656;7.188;2024-01-30T10:30:56;10.70;;;8.53;;
9938;SDS011;5008;50.656;7.188;2024-01-30T10:33:24;9.87;;;8.07;;
9938;SDS011;5008;50.656;7.188;2024-01-30T10:35:52;7.80;;;7.00;;
9938;SDS011;5008;50.656;7.188;2024-01-30T10:38:22;8.70;;;7.80;;
9938;SDS011;5008;50.656;7.188;2024-01-30T10:40:51;10.07;;;7.27;;
9938;SDS011;5008;50.656;7.188;2024-01-30T10:43:23;12.33;;;8.47;;
9938;SDS011;5008;50.656;7.188;2024-01-30T10:45:56;10.03;;;7.60;;
9938;SDS011;5008;50.656;7.188;2024-01-30T10:48:29;6.60;;;5.77;;
9938;SDS011;5008;50.656;7.188;2024-01-30T10:50:59;7.90;;;6.53;;
9938;SDS011;5008;50.656;7.188;2024-01-30T10:53:28;12.57;;;9.27;;
9938;SDS011;5008;50.656;7.188;2024-01-30T10:55:57;11.43;;;8.00;;
9938;SDS011;5008;50.656;7.188;2024-01-30T10:58:26;6.80;;;5.67;;
9938;SDS011;5008;50.656;7.188;2024-01-30T11:00:54;8.40;;;7.00;;
9938;SDS011;5008;50.656;7.188;2024-01-30T11:03:21;8.63;;;7.20;;
9938;SDS011;5008;50.656;7.188;2024-01-30T11:05:49;6.97;;;6.07;;
9938;SDS011;5008;50.656;7.188;2024-01-30T11:08:22;9.67;;;7.87;;
9938;SDS011;5008;50.656;7.188;2024-01-30T11:10:54;10.33;;;7.37;;
9938;SDS011;5008;50.656;7.188;2024-01-30T11:13:22;8.40;;;7.60;;
9938;SDS011;5008;50.656;7.188;2024-01-30T11:15:50;8.53;;;6.97;;
9938;SDS011;5008;50.656;7.188;2024-01-30T11:18:23;8.60;;;6.57;;
9938;SDS011;5008;50.656;7.188;2024-01-30T11:20:50;8.37;;;7.20;;
9938;SDS011;5008;50.656;7.188;2024-01-30T11:23:17;10.03;;;7.40;;
9938;SDS011;5008;50.656;7.188;2024-01-30T11:25:44;11.83;;;7.17;;
9938;SDS011;5008;50.656;7.188;2024-01-30T11:28:13;8.57;;;6.80;;
9938;SDS011;5008;50.656;7.188;2024-01-30T11:30:40;8.40;;;7.53;;
9938;SDS011;5008;50.656;7.188;2024-01-30T11:33:11;9.07;;;7.90;;
9938;SDS011;5008;50.656;7.188;2024-01-30T11:35:39;9.30;;;7.30;;
9938;SDS011;5008;50.656;7.188;2024-01-30T11:38:07;9.43;;;7.17;;
9938;SDS011;5008;50.656;7.188;2024-01-30T11:40:36;11.67;;;7.43;;
9938;SDS011;5008;50.656;7.188;2024-01-30T11:43:04;8.83;;;7.07;;
9938;SDS011;5008;50.656;7.188;2024-01-30T11:45:32;8.07;;;6.90;;
9938;SDS011;5008;50.656;7.188;2024-01-30T11:48:00;8.40;;;7.07;;
9938;SDS011;5008;50.656;7.188;2024-01-30T11:50:30;10.03;;;7.60;;
9938;SDS011;5008;50.656;7.188;2024-01-30T11:52:57;8.03;;;7.17;;
9938;SDS011;5008;50.656;7.188;2024-01-30T11:55:25;9.73;;;7.00;;
9938;SDS011;5008;50.656;7.188;2024-01-30T11:57:54;18.70;;;16.83;;
9938;SDS011;5008;50.656;7.188;2024-01-30T12:00:21;11.67;;;10.07;;
9938;SDS011;5008;50.656;7.188;2024-01-30T12:02:51;14.50;;;12.93;;
9938;SDS011;5008;50.656;7.188;2024-01-30T12:05:22;10.70;;;9.53;;
9938;SDS011;5008;50.656;7.188;2024-01-30T12:07:50;9.33;;;7.47;;
9938;SDS011;5008;50.656;7.188;2024-01-30T12:10:17;9.77;;;7.40;;
9938;SDS011;5008;50.656;7.188;2024-01-30T12:12:45;8.97;;;7.10;;
9938;SDS011;5008;50.656;7.188;2024-01-30T12:15:13;8.77;;;6.93;;
9938;SDS011;5008;50.656;7.188;2024-01-30T12:17:40;8.97;;;7.27;;
9938;SDS011;5008;50.656;7.188;2024-01-30T12:20:07;8.73;;;7.30;;
9938;SDS011;5008;50.656;7.188;2024-01-30T12:22:36;8.00;;;7.20;;
9938;SDS011;5008;50.656;7.188;2024-01-30T12:25:07;8.87;;;7.97;;
9938;SDS011;5008;50.656;7.188;2024-01-30T12:27:34;8.33;;;7.20;;
9938;SDS011;5008;50.656;7.188;2024-01-30T12:30:04;8.57;;;7.77;;
9938;SDS011;5008;50.656;7.188;2024-01-30T12:32:33;7.33;;;6.33;;
9938;SDS011;5008;50.656;7.188;2024-01-30T12:35:00;8.67;;;6.80;;
9938;SDS011;5008;50.656;7.188;2024-01-30T12:37:27;7.73;;;6.93;;
9938;SDS011;5008;50.656;7.188;2024-01-30T12:39:54;10.17;;;6.50;;
9938;SDS011;5008;50.656;7.188;2024-01-30T12:42:23;11.83;;;6.90;;
9938;SDS011;5008;50.656;7.188;2024-01-30T12:44:50;7.70;;;6.63;;
9938;SDS011;5008;50.656;7.188;2024-01-30T12:47:16;7.43;;;6.53;;
9938;SDS011;5008;50.656;7.188;2024-01-30T12:49:43;7.17;;;6.43;;
9938;SDS011;5008;50.656;7.188;2024-01-30T12:52:10;7.93;;;6.33;;
9938;SDS011;5008;50.656;7.188;2024-01-30T12:54:37;8.90;;;6.87;;
9938;SDS011;5008;50.656;7.188;2024-01-30T12:57:04;9.07;;;6.63;;
9938;SDS011;5008;50.656;7.188;2024-01-30T12:59:33;7.27;;;5.87;;
9938;SDS011;5008;50.656;7.188;2024-01-30T13:02:00;7.67;;;6.60;;
9938;SDS011;5008;50.656;7.188;2024-01-30T13:04:28;9.63;;;6.73;;
9938;SDS011;5008;50.656;7.188;2024-01-30T13:06:55;8.87;;;6.27;;
9938;SDS011;5008;50.656;7.188;2024-01-30T13:09:23;8.90;;;7.43;;
9938;SDS011;5008;50.656;7.188;2024-01-30T13:11:50;8.43;;;7.13;;
9938;SDS011;5008;50.656;7.188;2024-01-30T13:14:17;6.93;;;5.83;;
9938;SDS011;5008;50.656;7.188;2024-01-30T13:16:45;12.13;;;9.53;;
9938;SDS011;5008;50.656;7.188;2024-01-30T13:19:12;22.63;;;20.23;;
9938;SDS011;5008;50.656;7.188;2024-01-30T13:21:39;11.90;;;10.70;;
9938;SDS011;5008;50.656;7.188;2024-01-30T13:24:06;11.30;;;9.97;;
9938;SDS011;5008;50.656;7.188;2024-01-30T13:26:33;18.67;;;16.10;;
9938;SDS011;5008;50.656;7.188;2024-01-30T13:29:00;13.20;;;11.90;;
9938;SDS011;5008;50.656;7.188;2024-01-30T13:31:26;7.40;;;6.60;;
9938;SDS011;5008;50.656;7.188;2024-01-30T13:33:55;12.37;;;11.07;;
9938;SDS011;5008;50.656;7.188;2024-01-30T13:36:21;10.70;;;9.60;;
9938;SDS011;5008;50.656;7.188;2024-01-30T13:38:48;11.43;;;8.03;;
9938;SDS011;5008;50.656;7.188;2024-01-30T13:41:15;12.40;;;11.10;;
9938;SDS011;5008;50.656;7.188;2024-01-30T13:43:43;11.27;;;9.13;;
9938;SDS011;5008;50.656;7.188;2024-01-30T13:46:10;9.20;;;8.30;;
9938;SDS011;5008;50.656;7.188;2024-01-30T13:48:37;9.37;;;8.40;;
9938;SDS011;5008;50.656;7.188;2024-01-30T13:51:05;15.70;;;10.73;;
9938;SDS011;5008;50.656;7.188;2024-01-30T13:53:32;10.43;;;7.70;;
9938;SDS011;5008;50.656;7.188;2024-01-30T13:55:59;9.93;;;8.73;;
9938;SDS011;5008;50.656;7.188;2024-01-30T13:58:25;9.60;;;8.00;;
9938;SDS011;5008;50.656;7.188;2024-01-30T14:00:52;10.40;;;8.73;;
9938;SDS011;5008;50.656;7.188;2024-01-30T14:03:20;8.13;;;7.10;;
9938;SDS011;5008;50.656;7.188;2024-01-30T14:05:46;11.10;;;7.80;;
9938;SDS011;5008;50.656;7.188;2024-01-30T14:08:15;9.47;;;8.43;;
9938;SDS011;5008;50.656;7.188;2024-01-30T14:10:42;7.90;;;7.13;;
9938;SDS011;5008;50.656;7.188;2024-01-30T14:13:09;12.47;;;6.90;;
9938;SDS011;5008;50.656;7.188;2024-01-30T14:15:36;7.27;;;6.40;;
9938;SDS011;5008;50.656;7.188;2024-01-30T14:18:03;6.90;;;6.20;;
9938;SDS011;5008;50.656;7.188;2024-01-30T14:20:33;9.37;;;8.40;;
9938;SDS011;5008;50.656;7.188;2024-01-30T14:23:00;14.17;;;12.63;;
9938;SDS011;5008;50.656;7.188;2024-01-30T14:25:28;11.47;;;8.13;;
9938;SDS011;5008;50.656;7.188;2024-01-30T14:27:56;8.60;;;7.80;;
9938;SDS011;5008;50.656;7.188;2024-01-30T14:30:23;8.30;;;7.13;;
9938;SDS011;5008;50.656;7.188;2024-01-30T14:32:50;12.83;;;9.80;;
9938;SDS011;5008;50.656;7.188;2024-01-30T14:35:17;12.57;;;8.10;;
9938;SDS011;5008;50.656;7.188;2024-01-30T14:37:44;13.10;;;10.30;;
9938;SDS011;5008;50.656;7.188;2024-01-30T14:40:11;8.93;;;7.57;;
9938;SDS011;5008;50.656;7.188;2024-01-30T14:42:39;9.60;;;8.33;;
9938;SDS011;5008;50.656;7.188;2024-01-30T14:45:06;11.60;;;8.70;;
9938;SDS011;5008;50.656;7.188;2024-01-30T14:47:34;8.43;;;7.63;;
9938;SDS011;5008;50.656;7.188;2024-01-30T14:50:01;9.20;;;8.30;;
9938;SDS011;5008;50.656;7.188;2024-01-30T14:52:29;10.77;;;8.93;;
9938;SDS011;5008;50.656;7.188;2024-01-30T14:54:56;18.63;;;16.73;;
9938;SDS011;5008;50.656;7.188;2024-01-30T14:57:23;12.30;;;11.00;;
9938;SDS011;5008;50.656;7.188;2024-01-30T14:59:51;11.83;;;9.40;;
9938;SDS011;5008;50.656;7.188;2024-01-30T15:02:18;9.47;;;8.13;;
9938;SDS011;5008;50.656;7.188;2024-01-30T15:04:45;9.93;;;8.93;;
9938;SDS011;5008;50.656;7.188;2024-01-30T15:07:11;9.17;;;8.27;;
9938;SDS011;5008;50.656;7.188;2024-01-30T15:09:38;11.80;;;10.73;;
9938;SDS011;5008;50.656;7.188;2024-01-30T15:12:05;33.53;;;27.80;;
9938;SDS011;5008;50.656;7.188;2024-01-30T15:14:32;14.53;;;13.00;;
9938;SDS011;5008;50.656;7.188;2024-01-30T15:17:00;9.77;;;8.57;;
9938;SDS011;5008;50.656;7.188;2024-01-30T15:19:27;13.80;;;11.67;;
9938;SDS011;5008;50.656;7.188;2024-01-30T15:22:02;12.17;;;10.33;;
9938;SDS011;5008;50.656;7.188;2024-01-30T15:24:29;31.27;;;20.57;;
9938;SDS011;5008;50.656;7.188;2024-01-30T15:26:57;14.93;;;10.87;;
9938;SDS011;5008;50.656;7.188;2024-01-30T15:29:24;11.93;;;8.70;;
9938;SDS011;5008;50.656;7.188;2024-01-30T15:31:50;9.13;;;7.73;;
9938;SDS011;5008;50.656;7.188;2024-01-30T15:34:19;9.17;;;7.73;;
9938;SDS011;5008;50.656;7.188;2024-01-30T15:36:45;10.57;;;7.80;;
9938;SDS011;5008;50.656;7.188;2024-01-30T15:39:12;12.50;;;10.03;;
9938;SDS011;5008;50.656;7.188;2024-01-30T15:41:40;9.80;;;8.57;;
9938;SDS011;5008;50.656;7.188;2024-01-30T15:44:07;11.93;;;10.13;;
9938;SDS011;5008;50.656;7.188;2024-01-30T15:46:34;8.20;;;7.30;;
9938;SDS011;5008;50.656;7.188;2024-01-30T15:49:08;10.47;;;9.30;;
9938;SDS011;5008;50.656;7.188;2024-01-30T15:51:36;10.10;;;9.00;;
9938;SDS011;5008;50.656;7.188;2024-01-30T15:54:03;8.93;;;7.30;;
9938;SDS011;5008;50.656;7.188;2024-01-30T15:56:30;10.30;;;7.50;;
9938;SDS011;5008;50.656;7.188;2024-01-30T15:58:57;15.27;;;12.27;;
9938;SDS011;5008;50.656;7.188;2024-01-30T16:01:24;8.97;;;7.43;;
9938;SDS011;5008;50.656;7.188;2024-01-30T16:03:50;10.10;;;9.10;;
9938;SDS011;5008;50.656;7.188;2024-01-30T16:06:17;10.00;;;7.73;;
9938;SDS011;5008;50.656;7.188;2024-01-30T16:08:45;10.37;;;7.53;;
9938;SDS011;5008;50.656;7.188;2024-01-30T16:11:12;11.47;;;8.70;;
9938;SDS011;5008;50.656;7.188;2024-01-30T16:13:42;8.63;;;7.07;;
9938;SDS011;5008;50.656;7.188;2024-01-30T16:16:08;12.53;;;10.23;;
9938;SDS011;5008;50.656;7.188;2024-01-30T16:18:36;9.53;;;7.90;;
9938;SDS011;5008;50.656;7.188;2024-01-30T16:21:07;10.80;;;8.73;;
9938;SDS011;5008;50.656;7.188;2024-01-30T16:23:33;8.90;;;8.10;;
9938;SDS011;5008;50.656;7.188;2024-01-30T16:26:02;9.10;;;8.20;;
9938;SDS011;5008;50.656;7.188;2024-01-30T16:28:28;8.57;;;7.30;;
9938;SDS011;5008;50.656;7.188;2024-01-30T16:30:57;9.53;;;7.40;;
9938;SDS011;5008;50.656;7.188;2024-01-30T16:33:25;10.20;;;8.03;;
9938;SDS011;5008;50.656;7.188;2024-01-30T16:35:52;10.60;;;9.37;;
9938;SDS011;5008;50.656;7.188;2024-01-30T16:38:19;12.30;;;9.90;;
9938;SDS011;5008;50.656;7.188;2024-01-30T16:40:46;10.77;;;8.87;;
9938;SDS011;5008;50.656;7.188;2024-01-30T16:43:14;11.83;;;9.57;;
9938;SDS011;5008;50.656;7.188;2024-01-30T16:45:41;10.57;;;9.10;;
9938;SDS011;5008;50.656;7.188;2024-01-30T16:48:07;10.73;;;8.13;;
9938;SDS011;5008;50.656;7.188;2024-01-30T16:50:39;9.03;;;7.93;;
9938;SDS011;5008;50.656;7.188;2024-01-30T16:53:06;10.80;;;7.70;;
9938;SDS011;5008;50.656;7.188;2024-01-30T16:55:33;9.20;;;8.00;;
9938;SDS011;5008;50.656;7.188;2024-01-30T16:58:00;10.60;;;8.00;;
9938;SDS011;5008;50.656;7.188;2024-01-30T17:00:28;8.13;;;7.33;;
9938;SDS011;5008;50.656;7.188;2024-01-30T17:02:55;8.73;;;7.63;;
9938;SDS011;5008;50.656;7.188;2024-01-30T17:05:22;11.03;;;7.63;;
9938;SDS011;5008;50.656;7.188;2024-01-30T17:07:49;8.47;;;7.27;;
9938;SDS011;5008;50.656;7.188;2024-01-30T17:10:15;9.10;;;7.50;;
9938;SDS011;5008;50.656;7.188;2024-01-30T17:12:43;9.30;;;8.00;;
9938;SDS011;5008;50.656;7.188;2024-01-30T17:15:09;9.70;;;8.30;;
9938;SDS011;5008;50.656;7.188;2024-01-30T17:17:38;9.97;;;8.97;;
9938;SDS011;5008;50.656;7.188;2024-01-30T17:20:05;10.73;;;9.60;;
9938;SDS011;5008;50.656;7.188;2024-01-30T17:22:33;9.90;;;8.40;;
9938;SDS011;5008;50.656;7.188;2024-01-30T17:25:00;8.33;;;7.50;;
9938;SDS011;5008;50.656;7.188;2024-01-30T17:27:29;10.33;;;8.20;;
9938;SDS011;5008;50.656;7.188;2024-01-30T17:29:56;9.93;;;8.20;;
9938;SDS011;5008;50.656;7.188;2024-01-30T17:32:23;9.90;;;7.73;;
9938;SDS011;5008;50.656;7.188;2024-01-30T17:34:51;12.67;;;8.30;;
9938;SDS011;5008;50.656;7.188;2024-01-30T17:37:19;9.50;;;7.73;;
9938;SDS011;5008;50.656;7.188;2024-01-30T17:39:45;9.77;;;7.67;;
9938;SDS011;5008;50.656;7.188;2024-01-30T17:42:13;8.90;;;7.43;;
9938;SDS011;5008;50.656;7.188;2024-01-30T17:44:40;8.20;;;7.40;;
9938;SDS011;5008;50.656;7.188;2024-01-30T17:47:07;9.83;;;6.93;;
9938;SDS011;5008;50.656;7.188;2024-01-30T17:49:33;7.63;;;6.30;;
9938;SDS011;5008;50.656;7.188;2024-01-30T17:52:01;8.60;;;5.70;;
9938;SDS011;5008;50.656;7.188;2024-01-30T17:54:28;8.40;;;5.50;;
9938;SDS011;5008;50.656;7.188;2024-01-30T17:56:55;7.90;;;5.10;;
9938;SDS011;5008;50.656;7.188;2024-01-30T17:59:22;5.80;;;4.37;;
9938;SDS011;5008;50.656;7.188;2024-01-30T18:01:49;8.23;;;4.67;;
9938;SDS011;5008;50.656;7.188;2024-01-30T18:04:16;5.27;;;3.90;;
9938;SDS011;5008;50.656;7.188;2024-01-30T18:06:43;3.97;;;3.63;;
9938;SDS011;5008;50.656;7.188;2024-01-30T18:09:15;4.73;;;3.37;;
9938;SDS011;5008;50.656;7.188;2024-01-30T18:11:42;3.47;;;3.17;;
9938;SDS011;5008;50.656;7.188;2024-01-30T18:14:09;4.67;;;3.03;;
9938;SDS011;5008;50.656;7.188;2024-01-30T18:16:36;4.37;;;3.10;;
9938;SDS011;5008;50.656;7.188;2024-01-30T18:19:02;3.50;;;2.90;;
9938;SDS011;5008;50.656;7.188;2024-01-30T18:21:30;7.13;;;3.00;;
9938;SDS011;5008;50.656;7.188;2024-01-30T18:23:57;4.33;;;2.90;;
9938;SDS011;5008;50.656;7.188;2024-01-30T18:26:25;3.83;;;2.83;;
9938;SDS011;5008;50.656;7.188;2024-01-30T18:28:52;2.83;;;2.53;;
9938;SDS011;5008;50.656;7.188;2024-01-30T18:31:20;2.63;;;2.30;;
9938;SDS011;5008;50.656;7.188;2024-01-30T18:33:47;4.63;;;2.60;;
9938;SDS011;5008;50.656;7.188;2024-01-30T18:36:16;3.30;;;2.23;;
9938;SDS011;5008;50.656;7.188;2024-01-30T18:38:44;2.43;;;2.10;;
9938;SDS011;5008;50.656;7.188;2024-01-30T18:41:12;3.33;;;2.20;;
9938;SDS011;5008;50.656;7.188;2024-01-30T18:43:40;2.30;;;1.93;;
9938;SDS011;5008;50.656;7.188;2024-01-30T18:46:07;2.70;;;1.87;;
9938;SDS011;5008;50.656;7.188;2024-01-30T18:48:35;3.60;;;2.07;;
9938;SDS011;5008;50.656;7.188;2024-01-30T18:51:02;3.30;;;2.40;;
9938;SDS011;5008;50.656;7.188;2024-01-30T18:53:29;5.57;;;2.40;;
9938;SDS011;5008;50.656;7.188;2024-01-30T18:55:55;3.23;;;2.40;;
9938;SDS011;5008;50.656;7.188;2024-01-30T18:58:22;2.50;;;2.10;;
9938;SDS011;5008;50.656;7.188;2024-01-30T19:00:50;2.73;;;2.13;;
9938;SDS011;5008;50.656;7.188;2024-01-30T19:03:17;2.23;;;2.03;;
9938;SDS011;5008;50.656;7.188;2024-01-30T19:05:44;2.10;;;1.90;;
9938;SDS011;5008;50.656;7.188;2024-01-30T19:08:11;3.67;;;2.07;;
9938;SDS011;5008;50.656;7.188;2024-01-30T19:10:39;3.10;;;2.00;;
9938;SDS011;5008;50.656;7.188;2024-01-30T19:13:06;3.20;;;1.80;;
9938;SDS011;5008;50.656;7.188;2024-01-30T19:15:33;2.50;;;1.90;;
9938;SDS011;5008;50.656;7.188;2024-01-30T19:18:02;2.00;;;1.80;;
9938;SDS011;5008;50.656;7.188;2024-01-30T19:20:29;2.93;;;1.83;;
9938;SDS011;5008;50.656;7.188;2024-01-30T19:22:55;4.43;;;2.27;;
9938;SDS011;5008;50.656;7.188;2024-01-30T19:25:23;5.40;;;2.27;;
9938;SDS011;5008;50.656;7.188;2024-01-30T19:27:50;2.40;;;1.80;;
9938;SDS011;5008;50.656;7.188;2024-01-30T19:30:17;2.30;;;2.10;;
9938;SDS011;5008;50.656;7.188;2024-01-30T19:32:44;2.67;;;2.27;;
9938;SDS011;5008;50.656;7.188;2024-01-30T19:35:13;1.93;;;1.60;;
9938;SDS011;5008;50.656;7.188;2024-01-30T19:37:40;2.97;;;2.17;;
9938;SDS011;5008;50.656;7.188;2024-01-30T19:40:07;5.70;;;2.67;;
9938;SDS011;5008;50.656;7.188;2024-01-30T19:42:35;2.57;;;2.23;;
9938;SDS011;5008;50.656;7.188;2024-01-30T19:45:03;4.13;;;2.30;;
9938;SDS011;5008;50.656;7.188;2024-01-30T19:47:34;3.83;;;2.20;;
9938;SDS011;5008;50.656;7.188;2024-01-30T19:50:01;3.07;;;2.40;;
9938;SDS011;5008;50.656;7.188;2024-01-30T19:52:29;3.10;;;1.97;;
9938;SDS011;5008;50.656;7.188;2024-01-30T19:54:56;4.13;;;3.00;;
9938;SDS011;5008;50.656;7.188;2024-01-30T19:57:23;4.23;;;2.47;;
9938;SDS011;5008;50.656;7.188;2024-01-30T19:59:49;3.07;;;2.03;;
9938;SDS011;5008;50.656;7.188;2024-01-30T20:02:16;2.93;;;1.90;;
9938;SDS011;5008;50.656;7.188;2024-01-30T20:04:45;3.07;;;1.87;;
9938;SDS011;5008;50.656;7.188;2024-01-30T20:07:12;3.33;;;1.87;;
9938;SDS011;5008;50.656;7.188;2024-01-30T20:09:41;3.50;;;2.00;;